sensor_id;sensor_type;location;lat;lon;timestamp;P1;durP1;ratioP1;P2;durP2;ratioP2
15624;SDS011;7912;51.376;6.126;2023-03-19T00:00:41;3.30;;;3.00;;
15624;SDS011;7912;51.376;6.126;2023-03-19T00:03:15;3.27;;;2.97;;
15624;SDS011;7912;51.376;6.126;2023-03-19T00:09:08;2.93;;;2.73;;
15624;SDS011;7912;51.376;6.126;2023-03-19T00:11:49;4.50;;;3.63;;
15624;SDS011;7912;51.376;6.126;2023-03-19T00:14:26;3.70;;;3.40;;
15624;SDS011;7912;51.376;6.126;2023-03-19T00:17:06;4.10;;;3.33;;
15624;SDS011;7912;51.376;6.126;2023-03-19T00:19:48;4.20;;;3.60;;
15624;SDS011;7912;51.376;6.126;2023-03-19T00:22:21;3.77;;;3.47;;
15624;SDS011;7912;51.376;6.126;2023-03-19T00:25:04;3.63;;;3.33;;
15624;SDS011;7912;51.376;6.126;2023-03-19T00:27:36;4.77;;;3.40;;
15624;SDS011;7912;51.376;6.126;2023-03-19T00:30:04;4.80;;;3.73;;
15624;SDS011;7912;51.376;6.126;2023-03-19T00:32:40;3.80;;;3.50;;
15624;SDS011;7912;51.376;6.126;2023-03-19T00:35:07;3.87;;;3.57;;
15624;SDS011;7912;51.376;6.126;2023-03-19T00:37:37;3.90;;;3.50;;
15624;SDS011;7912;51.376;6.126;2023-03-19T00:40:08;4.03;;;3.50;;
15624;SDS011;7912;51.376;6.126;2023-03-19T00:42:43;3.83;;;3.40;;
15624;SDS011;7912;51.376;6.126;2023-03-19T00:45:17;4.17;;;3.63;;
15624;SDS011;7912;51.376;6.126;2023-03-19T00:47:46;6.90;;;4.47;;
15624;SDS011;7912;51.376;6.126;2023-03-19T00:50:18;7.73;;;6.23;;
15624;SDS011;7912;51.376;6.126;2023-03-19T00:52:46;8.53;;;6.70;;
15624;SDS011;7912;51.376;6.126;2023-03-19T00:55:18;8.30;;;6.23;;
15624;SDS011;7912;51.376;6.126;2023-03-19T00:57:47;7.30;;;6.17;;
15624;SDS011;7912;51.376;6.126;2023-03-19T01:00:15;8.10;;;6.27;;
15624;SDS011;7912;51.376;6.126;2023-03-19T01:02:46;5.93;;;5.20;;
15624;SDS011;7912;51.376;6.126;2023-03-19T01:05:14;5.57;;;4.90;;
15624;SDS011;7912;51.376;6.126;2023-03-19T01:07:41;5.10;;;4.60;;
15624;SDS011;7912;51.376;6.126;2023-03-19T01:10:11;4.60;;;4.10;;
15624;SDS011;7912;51.376;6.126;2023-03-19T01:12:39;4.00;;;3.63;;
15624;SDS011;7912;51.376;6.126;2023-03-19T01:15:07;4.07;;;3.40;;
15624;SDS011;7912;51.376;6.126;2023-03-19T01:17:35;4.67;;;3.40;;
15624;SDS011;7912;51.376;6.126;2023-03-19T01:20:04;3.70;;;3.40;;
15624;SDS011;7912;51.376;6.126;2023-03-19T01:22:39;3.43;;;3.13;;
15624;SDS011;7912;51.376;6.126;2023-03-19T01:25:10;4.00;;;3.60;;
15624;SDS011;7912;51.376;6.126;2023-03-19T01:27:40;4.50;;;3.77;;
15624;SDS011;7912;51.376;6.126;2023-03-19T01:30:07;3.70;;;3.37;;
15624;SDS011;7912;51.376;6.126;2023-03-19T01:32:36;4.07;;;3.40;;
15624;SDS011;7912;51.376;6.126;2023-03-19T01:35:03;3.87;;;3.47;;
15624;SDS011;7912;51.376;6.126;2023-03-19T01:37:32;3.77;;;3.30;;
15624;SDS011;7912;51.376;6.126;2023-03-19T01:39:59;3.87;;;3.57;;
15624;SDS011;7912;51.376;6.126;2023-03-19T01:42:27;3.87;;;3.47;;
15624;SDS011;7912;51.376;6.126;2023-03-19T01:44:54;3.77;;;3.40;;
15624;SDS011;7912;51.376;6.126;2023-03-19T01:47:24;4.83;;;3.73;;
15624;SDS011;7912;51.376;6.126;2023-03-19T01:49:57;5.27;;;3.80;;
15624;SDS011;7912;51.376;6.126;2023-03-19T01:52:26;3.43;;;3.13;;
15624;SDS011;7912;51.376;6.126;2023-03-19T01:55:00;4.23;;;3.40;;
15624;SDS011;7912;51.376;6.126;2023-03-19T01:57:31;5.90;;;3.50;;
15624;SDS011;7912;51.376;6.126;2023-03-19T01:59:59;3.90;;;3.50;;
15624;SDS011;7912;51.376;6.126;2023-03-19T02:02:32;3.83;;;3.43;;
15624;SDS011;7912;51.376;6.126;2023-03-19T02:07:37;3.63;;;3.07;;
15624;SDS011;7912;51.376;6.126;2023-03-19T02:10:09;3.30;;;3.00;;
15624;SDS011;7912;51.376;6.126;2023-03-19T02:12:40;3.83;;;3.17;;
15624;SDS011;7912;51.376;6.126;2023-03-19T02:15:08;4.57;;;3.30;;
15624;SDS011;7912;51.376;6.126;2023-03-19T02:17:36;3.20;;;2.93;;
15624;SDS011;7912;51.376;6.126;2023-03-19T02:23:10;3.50;;;3.10;;
15624;SDS011;7912;51.376;6.126;2023-03-19T02:28:40;3.30;;;2.67;;
15624;SDS011;7912;51.376;6.126;2023-03-19T02:31:11;2.90;;;2.70;;
15624;SDS011;7912;51.376;6.126;2023-03-19T02:33:40;3.50;;;3.20;;
15624;SDS011;7912;51.376;6.126;2023-03-19T02:36:14;2.73;;;2.53;;
15624;SDS011;7912;51.376;6.126;2023-03-19T02:38:45;3.03;;;2.73;;
15624;SDS011;7912;51.376;6.126;2023-03-19T02:41:14;2.80;;;2.60;;
15624;SDS011;7912;51.376;6.126;2023-03-19T02:43:42;3.20;;;2.90;;
15624;SDS011;7912;51.376;6.126;2023-03-19T02:46:10;4.07;;;2.83;;
15624;SDS011;7912;51.376;6.126;2023-03-19T02:48:39;3.30;;;3.00;;
15624;SDS011;7912;51.376;6.126;2023-03-19T02:51:07;2.90;;;2.60;;
15624;SDS011;7912;51.376;6.126;2023-03-19T02:53:34;4.57;;;3.00;;
15624;SDS011;7912;51.376;6.126;2023-03-19T02:56:02;3.33;;;2.87;;
15624;SDS011;7912;51.376;6.126;2023-03-19T02:58:29;3.00;;;2.43;;
15624;SDS011;7912;51.376;6.126;2023-03-19T03:00:56;6.77;;;2.77;;
15624;SDS011;7912;51.376;6.126;2023-03-19T03:03:24;3.03;;;2.73;;
15624;SDS011;7912;51.376;6.126;2023-03-19T03:05:52;4.10;;;3.00;;
15624;SDS011;7912;51.376;6.126;2023-03-19T03:08:19;2.80;;;2.60;;
15624;SDS011;7912;51.376;6.126;2023-03-19T03:16:21;3.47;;;2.50;;
15624;SDS011;7912;51.376;6.126;2023-03-19T03:18:49;3.30;;;3.00;;
15624;SDS011;7912;51.376;6.126;2023-03-19T03:21:17;3.23;;;2.87;;
15624;SDS011;7912;51.376;6.126;2023-03-19T03:23:47;3.80;;;3.00;;
15624;SDS011;7912;51.376;6.126;2023-03-19T03:26:14;3.03;;;2.73;;
15624;SDS011;7912;51.376;6.126;2023-03-19T03:28:41;3.23;;;2.80;;
15624;SDS011;7912;51.376;6.126;2023-03-19T03:31:08;3.77;;;2.90;;
15624;SDS011;7912;51.376;6.126;2023-03-19T03:33:36;3.27;;;2.90;;
15624;SDS011;7912;51.376;6.126;2023-03-19T03:36:03;3.97;;;3.20;;
15624;SDS011;7912;51.376;6.126;2023-03-19T03:38:31;3.23;;;2.70;;
15624;SDS011;7912;51.376;6.126;2023-03-19T03:40:59;3.23;;;2.80;;
15624;SDS011;7912;51.376;6.126;2023-03-19T03:47:22;3.83;;;3.03;;
15624;SDS011;7912;51.376;6.126;2023-03-19T03:49:49;3.77;;;3.30;;
15624;SDS011;7912;51.376;6.126;2023-03-19T03:52:17;5.67;;;3.07;;
15624;SDS011;7912;51.376;6.126;2023-03-19T03:54:44;3.90;;;3.30;;
15624;SDS011;7912;51.376;6.126;2023-03-19T03:57:12;3.40;;;3.10;;
15624;SDS011;7912;51.376;6.126;2023-03-19T03:59:39;3.60;;;3.30;;
15624;SDS011;7912;51.376;6.126;2023-03-19T04:02:07;3.90;;;3.10;;
15624;SDS011;7912;51.376;6.126;2023-03-19T04:04:34;3.57;;;3.23;;
15624;SDS011;7912;51.376;6.126;2023-03-19T04:07:05;4.20;;;3.27;;
15624;SDS011;7912;51.376;6.126;2023-03-19T04:09:33;4.00;;;3.50;;
15624;SDS011;7912;51.376;6.126;2023-03-19T04:12:00;3.73;;;3.43;;
15624;SDS011;7912;51.376;6.126;2023-03-19T04:14:28;4.17;;;3.77;;
15624;SDS011;7912;51.376;6.126;2023-03-19T04:16:59;5.13;;;3.63;;
15624;SDS011;7912;51.376;6.126;2023-03-19T04:20:09;5.63;;;3.70;;
15624;SDS011;7912;51.376;6.126;2023-03-19T04:22:37;4.93;;;4.40;;
15624;SDS011;7912;51.376;6.126;2023-03-19T04:25:05;4.70;;;4.30;;
15624;SDS011;7912;51.376;6.126;2023-03-19T04:27:33;5.37;;;4.70;;
15624;SDS011;7912;51.376;6.126;2023-03-19T04:30:01;6.07;;;4.50;;
15624;SDS011;7912;51.376;6.126;2023-03-19T04:32:30;5.33;;;3.83;;
15624;SDS011;7912;51.376;6.126;2023-03-19T04:35:00;5.90;;;4.53;;
15624;SDS011;7912;51.376;6.126;2023-03-19T04:37:28;4.93;;;4.10;;
15624;SDS011;7912;51.376;6.126;2023-03-19T04:39:56;4.93;;;3.90;;
15624;SDS011;7912;51.376;6.126;2023-03-19T04:42:25;4.80;;;4.30;;
15624;SDS011;7912;51.376;6.126;2023-03-19T04:48:19;5.40;;;4.90;;
15624;SDS011;7912;51.376;6.126;2023-03-19T04:50:50;5.10;;;4.57;;
15624;SDS011;7912;51.376;6.126;2023-03-19T04:53:19;4.97;;;4.50;;
15624;SDS011;7912;51.376;6.126;2023-03-19T04:55:58;5.50;;;4.93;;
15624;SDS011;7912;51.376;6.126;2023-03-19T04:58:26;6.17;;;5.00;;
15624;SDS011;7912;51.376;6.126;2023-03-19T05:00:53;5.40;;;4.90;;
15624;SDS011;7912;51.376;6.126;2023-03-19T05:03:21;5.57;;;5.00;;
15624;SDS011;7912;51.376;6.126;2023-03-19T05:05:49;6.00;;;5.17;;
15624;SDS011;7912;51.376;6.126;2023-03-19T05:08:20;5.40;;;4.90;;
15624;SDS011;7912;51.376;6.126;2023-03-19T05:10:47;5.47;;;4.97;;
15624;SDS011;7912;51.376;6.126;2023-03-19T05:13:15;5.73;;;5.13;;
15624;SDS011;7912;51.376;6.126;2023-03-19T05:15:45;6.00;;;5.40;;
15624;SDS011;7912;51.376;6.126;2023-03-19T05:18:13;5.50;;;5.00;;
15624;SDS011;7912;51.376;6.126;2023-03-19T05:20:40;5.53;;;5.03;;
15624;SDS011;7912;51.376;6.126;2023-03-19T05:23:09;4.90;;;4.30;;
15624;SDS011;7912;51.376;6.126;2023-03-19T05:25:39;6.17;;;5.43;;
15624;SDS011;7912;51.376;6.126;2023-03-19T05:28:06;5.30;;;4.80;;
15624;SDS011;7912;51.376;6.126;2023-03-19T05:30:34;5.07;;;4.60;;
15624;SDS011;7912;51.376;6.126;2023-03-19T05:33:02;5.43;;;4.93;;
15624;SDS011;7912;51.376;6.126;2023-03-19T05:35:31;5.50;;;5.00;;
15624;SDS011;7912;51.376;6.126;2023-03-19T05:37:59;5.33;;;4.90;;
15624;SDS011;7912;51.376;6.126;2023-03-19T05:40:27;6.20;;;5.60;;
15624;SDS011;7912;51.376;6.126;2023-03-19T05:42:58;5.90;;;5.30;;
15624;SDS011;7912;51.376;6.126;2023-03-19T05:45:25;5.93;;;5.33;;
15624;SDS011;7912;51.376;6.126;2023-03-19T05:47:55;5.93;;;5.27;;
15624;SDS011;7912;51.376;6.126;2023-03-19T05:50:27;5.43;;;4.77;;
15624;SDS011;7912;51.376;6.126;2023-03-19T05:52:55;5.90;;;5.13;;
15624;SDS011;7912;51.376;6.126;2023-03-19T05:55:23;6.47;;;5.87;;
15624;SDS011;7912;51.376;6.126;2023-03-19T05:57:56;6.20;;;5.60;;
15624;SDS011;7912;51.376;6.126;2023-03-19T06:00:24;6.20;;;5.23;;
15624;SDS011;7912;51.376;6.126;2023-03-19T06:02:52;6.97;;;5.70;;
15624;SDS011;7912;51.376;6.126;2023-03-19T06:05:20;6.57;;;5.97;;
15624;SDS011;7912;51.376;6.126;2023-03-19T06:07:48;6.80;;;6.10;;
15624;SDS011;7912;51.376;6.126;2023-03-19T06:10:16;7.20;;;6.20;;
15624;SDS011;7912;51.376;6.126;2023-03-19T06:12:45;6.67;;;6.07;;
15624;SDS011;7912;51.376;6.126;2023-03-19T06:15:15;6.97;;;6.27;;
15624;SDS011;7912;51.376;6.126;2023-03-19T06:17:43;7.00;;;6.30;;
15624;SDS011;7912;51.376;6.126;2023-03-19T06:20:11;6.87;;;6.27;;
15624;SDS011;7912;51.376;6.126;2023-03-19T06:22:39;6.87;;;6.23;;
15624;SDS011;7912;51.376;6.126;2023-03-19T06:25:07;7.07;;;6.37;;
15624;SDS011;7912;51.376;6.126;2023-03-19T06:30:22;7.47;;;6.77;;
15624;SDS011;7912;51.376;6.126;2023-03-19T06:32:49;7.30;;;6.43;;
15624;SDS011;7912;51.376;6.126;2023-03-19T06:35:17;7.20;;;6.60;;
15624;SDS011;7912;51.376;6.126;2023-03-19T06:37:45;6.40;;;5.80;;
15624;SDS011;7912;51.376;6.126;2023-03-19T06:40:13;7.40;;;6.60;;
15624;SDS011;7912;51.376;6.126;2023-03-19T06:42:44;7.67;;;6.90;;
15624;SDS011;7912;51.376;6.126;2023-03-19T06:45:13;7.07;;;6.47;;
15624;SDS011;7912;51.376;6.126;2023-03-19T06:47:44;7.77;;;6.97;;
15624;SDS011;7912;51.376;6.126;2023-03-19T06:50:18;7.47;;;6.33;;
15624;SDS011;7912;51.376;6.126;2023-03-19T06:52:46;7.67;;;6.97;;
15624;SDS011;7912;51.376;6.126;2023-03-19T06:55:28;6.97;;;6.30;;
15624;SDS011;7912;51.376;6.126;2023-03-19T06:57:59;7.77;;;6.97;;
15624;SDS011;7912;51.376;6.126;2023-03-19T07:00:26;7.50;;;6.83;;
15624;SDS011;7912;51.376;6.126;2023-03-19T07:02:54;7.13;;;6.50;;
15624;SDS011;7912;51.376;6.126;2023-03-19T07:05:22;7.37;;;6.60;;
15624;SDS011;7912;51.376;6.126;2023-03-19T07:07:49;7.00;;;6.30;;
15624;SDS011;7912;51.376;6.126;2023-03-19T07:10:18;8.07;;;7.27;;
15624;SDS011;7912;51.376;6.126;2023-03-19T07:12:46;7.57;;;6.63;;
15624;SDS011;7912;51.376;6.126;2023-03-19T07:18:02;6.57;;;5.87;;
15624;SDS011;7912;51.376;6.126;2023-03-19T07:20:30;6.20;;;5.70;;
15624;SDS011;7912;51.376;6.126;2023-03-19T07:22:59;6.73;;;6.13;;
15624;SDS011;7912;51.376;6.126;2023-03-19T07:25:29;6.00;;;5.40;;
15624;SDS011;7912;51.376;6.126;2023-03-19T07:27:57;6.13;;;5.57;;
15624;SDS011;7912;51.376;6.126;2023-03-19T07:30:25;7.40;;;6.17;;
15624;SDS011;7912;51.376;6.126;2023-03-19T07:32:56;6.27;;;5.73;;
15624;SDS011;7912;51.376;6.126;2023-03-19T07:35:24;6.73;;;5.57;;
15624;SDS011;7912;51.376;6.126;2023-03-19T07:37:52;6.03;;;5.43;;
15624;SDS011;7912;51.376;6.126;2023-03-19T07:40:21;5.73;;;5.23;;
15624;SDS011;7912;51.376;6.126;2023-03-19T07:42:48;5.80;;;5.20;;
15624;SDS011;7912;51.376;6.126;2023-03-19T07:45:16;6.03;;;5.47;;
15624;SDS011;7912;51.376;6.126;2023-03-19T07:47:44;6.00;;;5.43;;
15624;SDS011;7912;51.376;6.126;2023-03-19T07:53:05;6.30;;;5.47;;
15624;SDS011;7912;51.376;6.126;2023-03-19T07:55:33;6.70;;;6.10;;
15624;SDS011;7912;51.376;6.126;2023-03-19T07:58:03;6.50;;;5.90;;
15624;SDS011;7912;51.376;6.126;2023-03-19T08:03:20;6.40;;;5.83;;
15624;SDS011;7912;51.376;6.126;2023-03-19T08:05:48;6.70;;;6.10;;
15624;SDS011;7912;51.376;6.126;2023-03-19T08:11:03;6.53;;;5.93;;
15624;SDS011;7912;51.376;6.126;2023-03-19T08:13:32;6.67;;;6.07;;
15624;SDS011;7912;51.376;6.126;2023-03-19T08:15:59;5.90;;;5.40;;
15624;SDS011;7912;51.376;6.126;2023-03-19T08:18:27;6.30;;;5.80;;
15624;SDS011;7912;51.376;6.126;2023-03-19T08:20:54;6.97;;;6.27;;
15624;SDS011;7912;51.376;6.126;2023-03-19T08:23:21;6.30;;;5.80;;
15624;SDS011;7912;51.376;6.126;2023-03-19T08:25:49;6.37;;;5.77;;
15624;SDS011;7912;51.376;6.126;2023-03-19T08:28:20;6.40;;;5.80;;
15624;SDS011;7912;51.376;6.126;2023-03-19T08:30:48;6.40;;;5.87;;
15624;SDS011;7912;51.376;6.126;2023-03-19T08:33:16;6.60;;;6.10;;
15624;SDS011;7912;51.376;6.126;2023-03-19T08:35:43;6.43;;;5.83;;
15624;SDS011;7912;51.376;6.126;2023-03-19T08:38:11;6.70;;;6.10;;
15624;SDS011;7912;51.376;6.126;2023-03-19T08:40:39;6.67;;;5.97;;
15624;SDS011;7912;51.376;6.126;2023-03-19T08:43:06;7.23;;;6.53;;
15624;SDS011;7912;51.376;6.126;2023-03-19T08:45:35;6.90;;;6.20;;
15624;SDS011;7912;51.376;6.126;2023-03-19T08:48:03;8.13;;;7.30;;
15624;SDS011;7912;51.376;6.126;2023-03-19T08:50:31;6.67;;;6.07;;
15624;SDS011;7912;51.376;6.126;2023-03-19T08:52:58;6.57;;;6.07;;
15624;SDS011;7912;51.376;6.126;2023-03-19T08:55:34;6.70;;;6.00;;
15624;SDS011;7912;51.376;6.126;2023-03-19T08:58:02;6.13;;;5.60;;
15624;SDS011;7912;51.376;6.126;2023-03-19T09:00:29;6.13;;;5.60;;
15624;SDS011;7912;51.376;6.126;2023-03-19T09:02:57;5.90;;;5.30;;
15624;SDS011;7912;51.376;6.126;2023-03-19T09:05:24;6.13;;;5.63;;
15624;SDS011;7912;51.376;6.126;2023-03-19T09:07:54;5.33;;;4.83;;
15624;SDS011;7912;51.376;6.126;2023-03-19T09:10:22;5.43;;;4.93;;
15624;SDS011;7912;51.376;6.126;2023-03-19T09:12:49;5.50;;;5.00;;
15624;SDS011;7912;51.376;6.126;2023-03-19T09:15:17;5.83;;;4.60;;
15624;SDS011;7912;51.376;6.126;2023-03-19T09:17:48;5.43;;;4.60;;
15624;SDS011;7912;51.376;6.126;2023-03-19T09:20:15;4.77;;;4.33;;
15624;SDS011;7912;51.376;6.126;2023-03-19T09:22:43;6.20;;;4.40;;
15624;SDS011;7912;51.376;6.126;2023-03-19T09:25:11;4.87;;;4.27;;
15624;SDS011;7912;51.376;6.126;2023-03-19T09:27:40;4.73;;;4.33;;
15624;SDS011;7912;51.376;6.126;2023-03-19T09:33:54;4.30;;;3.90;;
15624;SDS011;7912;51.376;6.126;2023-03-19T09:39:10;3.63;;;3.33;;
15624;SDS011;7912;51.376;6.126;2023-03-19T09:41:48;4.67;;;3.70;;
15624;SDS011;7912;51.376;6.126;2023-03-19T09:44:35;5.50;;;4.07;;
15624;SDS011;7912;51.376;6.126;2023-03-19T09:50:13;3.93;;;3.40;;
15624;SDS011;7912;51.376;6.126;2023-03-19T09:52:48;4.27;;;3.50;;
15624;SDS011;7912;51.376;6.126;2023-03-19T09:57:52;2.90;;;2.23;;
15624;SDS011;7912;51.376;6.126;2023-03-19T10:00:33;3.17;;;2.67;;
15624;SDS011;7912;51.376;6.126;2023-03-19T10:06:13;4.00;;;2.47;;
15624;SDS011;7912;51.376;6.126;2023-03-19T10:17:59;4.70;;;3.17;;
15624;SDS011;7912;51.376;6.126;2023-03-19T10:20:56;3.40;;;2.77;;
15624;SDS011;7912;51.376;6.126;2023-03-19T10:23:41;3.90;;;2.60;;
15624;SDS011;7912;51.376;6.126;2023-03-19T10:26:30;3.63;;;2.73;;
15624;SDS011;7912;51.376;6.126;2023-03-19T10:29:37;3.37;;;2.43;;
15624;SDS011;7912;51.376;6.126;2023-03-19T10:34:45;3.47;;;2.23;;
15624;SDS011;7912;51.376;6.126;2023-03-19T10:39:49;1.90;;;1.50;;
15624;SDS011;7912;51.376;6.126;2023-03-19T10:45:31;2.93;;;1.70;;
15624;SDS011;7912;51.376;6.126;2023-03-19T10:48:05;3.37;;;2.00;;
15624;SDS011;7912;51.376;6.126;2023-03-19T10:50:48;3.10;;;1.70;;
15624;SDS011;7912;51.376;6.126;2023-03-19T10:53:32;2.87;;;1.50;;
15624;SDS011;7912;51.376;6.126;2023-03-19T10:56:22;4.07;;;1.80;;
15624;SDS011;7912;51.376;6.126;2023-03-19T10:59:05;3.10;;;1.60;;
15624;SDS011;7912;51.376;6.126;2023-03-19T11:01:48;3.23;;;1.53;;
15624;SDS011;7912;51.376;6.126;2023-03-19T11:04:19;2.00;;;1.60;;
15624;SDS011;7912;51.376;6.126;2023-03-19T11:06:53;2.57;;;1.60;;
15624;SDS011;7912;51.376;6.126;2023-03-19T11:09:34;2.87;;;1.70;;
15624;SDS011;7912;51.376;6.126;2023-03-19T11:14:57;3.27;;;1.57;;
15624;SDS011;7912;51.376;6.126;2023-03-19T11:17:39;2.40;;;1.57;;
15624;SDS011;7912;51.376;6.126;2023-03-19T11:20:26;2.80;;;1.50;;
15624;SDS011;7912;51.376;6.126;2023-03-19T11:23:03;2.20;;;1.70;;
15624;SDS011;7912;51.376;6.126;2023-03-19T11:25:45;2.87;;;1.53;;
15624;SDS011;7912;51.376;6.126;2023-03-19T11:28:24;2.27;;;1.40;;
15624;SDS011;7912;51.376;6.126;2023-03-19T11:52:15;3.77;;;2.10;;
15624;SDS011;7912;51.376;6.126;2023-03-19T11:55:10;2.30;;;2.00;;
15624;SDS011;7912;51.376;6.126;2023-03-19T12:00:52;3.37;;;2.30;;
15624;SDS011;7912;51.376;6.126;2023-03-19T12:11:51;3.70;;;2.87;;
15624;SDS011;7912;51.376;6.126;2023-03-19T12:14:31;2.57;;;2.33;;
15624;SDS011;7912;51.376;6.126;2023-03-19T12:17:33;3.63;;;2.40;;
15624;SDS011;7912;51.376;6.126;2023-03-19T12:20:20;2.90;;;2.13;;
15624;SDS011;7912;51.376;6.126;2023-03-19T12:23:16;4.30;;;2.70;;
15624;SDS011;7912;51.376;6.126;2023-03-19T12:25:59;3.23;;;2.63;;
15624;SDS011;7912;51.376;6.126;2023-03-19T12:34:51;3.60;;;2.80;;
15624;SDS011;7912;51.376;6.126;2023-03-19T12:37:31;4.87;;;2.70;;
15624;SDS011;7912;51.376;6.126;2023-03-19T12:43:25;3.20;;;2.40;;
15624;SDS011;7912;51.376;6.126;2023-03-19T12:46:32;4.47;;;2.60;;
15624;SDS011;7912;51.376;6.126;2023-03-19T12:49:18;3.00;;;2.20;;
15624;SDS011;7912;51.376;6.126;2023-03-19T12:52:20;4.33;;;2.60;;
15624;SDS011;7912;51.376;6.126;2023-03-19T12:55:04;3.70;;;2.10;;
15624;SDS011;7912;51.376;6.126;2023-03-19T12:57:53;4.13;;;2.00;;
15624;SDS011;7912;51.376;6.126;2023-03-19T13:03:16;3.60;;;1.90;;
15624;SDS011;7912;51.376;6.126;2023-03-19T13:08:56;3.27;;;2.57;;
15624;SDS011;7912;51.376;6.126;2023-03-19T13:12:15;2.67;;;1.97;;
15624;SDS011;7912;51.376;6.126;2023-03-19T13:14:51;3.00;;;2.10;;
15624;SDS011;7912;51.376;6.126;2023-03-19T13:17:53;3.73;;;2.30;;
15624;SDS011;7912;51.376;6.126;2023-03-19T13:23:41;3.63;;;2.17;;
15624;SDS011;7912;51.376;6.126;2023-03-19T13:26:12;3.20;;;1.73;;
15624;SDS011;7912;51.376;6.126;2023-03-19T13:32:00;2.37;;;1.80;;
15624;SDS011;7912;51.376;6.126;2023-03-19T13:34:33;4.07;;;2.10;;
15624;SDS011;7912;51.376;6.126;2023-03-19T13:37:10;4.93;;;2.97;;
15624;SDS011;7912;51.376;6.126;2023-03-19T13:39:47;5.40;;;2.97;;
15624;SDS011;7912;51.376;6.126;2023-03-19T13:42:23;3.97;;;2.70;;
15624;SDS011;7912;51.376;6.126;2023-03-19T13:45:27;3.63;;;2.37;;
15624;SDS011;7912;51.376;6.126;2023-03-19T13:59:45;4.30;;;2.60;;
15624;SDS011;7912;51.376;6.126;2023-03-19T14:04:57;5.03;;;2.47;;
15624;SDS011;7912;51.376;6.126;2023-03-19T14:07:37;2.57;;;2.23;;
15624;SDS011;7912;51.376;6.126;2023-03-19T14:10:28;3.80;;;2.30;;
15624;SDS011;7912;51.376;6.126;2023-03-19T14:13:07;4.20;;;2.60;;
15624;SDS011;7912;51.376;6.126;2023-03-19T14:15:48;4.27;;;2.90;;
15624;SDS011;7912;51.376;6.126;2023-03-19T14:18:17;3.80;;;2.70;;
15624;SDS011;7912;51.376;6.126;2023-03-19T14:21:00;3.40;;;2.40;;
15624;SDS011;7912;51.376;6.126;2023-03-19T14:23:53;5.27;;;2.67;;
15624;SDS011;7912;51.376;6.126;2023-03-19T14:26:25;3.57;;;2.47;;
15624;SDS011;7912;51.376;6.126;2023-03-19T14:29:01;4.87;;;2.57;;
15624;SDS011;7912;51.376;6.126;2023-03-19T14:31:40;4.53;;;2.27;;
15624;SDS011;7912;51.376;6.126;2023-03-19T14:37:03;5.90;;;2.50;;
15624;SDS011;7912;51.376;6.126;2023-03-19T14:39:57;7.37;;;2.70;;
15624;SDS011;7912;51.376;6.126;2023-03-19T14:46:03;8.13;;;3.90;;
15624;SDS011;7912;51.376;6.126;2023-03-19T14:54:54;7.30;;;3.30;;
15624;SDS011;7912;51.376;6.126;2023-03-19T14:57:28;5.80;;;3.93;;
15624;SDS011;7912;51.376;6.126;2023-03-19T14:59:58;5.10;;;3.50;;
15624;SDS011;7912;51.376;6.126;2023-03-19T15:05:08;6.33;;;3.20;;
15624;SDS011;7912;51.376;6.126;2023-03-19T15:07:51;5.23;;;3.10;;
15624;SDS011;7912;51.376;6.126;2023-03-19T15:10:22;6.87;;;3.37;;
15624;SDS011;7912;51.376;6.126;2023-03-19T15:18:30;5.67;;;3.27;;
15624;SDS011;7912;51.376;6.126;2023-03-19T15:20:57;4.83;;;3.30;;
15624;SDS011;7912;51.376;6.126;2023-03-19T15:23:26;8.13;;;4.07;;
15624;SDS011;7912;51.376;6.126;2023-03-19T15:25:59;6.53;;;4.03;;
15624;SDS011;7912;51.376;6.126;2023-03-19T15:28:30;6.50;;;3.80;;
15624;SDS011;7912;51.376;6.126;2023-03-19T15:31:10;5.30;;;3.93;;
15624;SDS011;7912;51.376;6.126;2023-03-19T15:33:56;7.13;;;3.53;;
15624;SDS011;7912;51.376;6.126;2023-03-19T15:36:25;5.97;;;3.67;;
15624;SDS011;7912;51.376;6.126;2023-03-19T15:38:59;6.53;;;3.57;;
15624;SDS011;7912;51.376;6.126;2023-03-19T15:41:32;8.97;;;4.27;;
15624;SDS011;7912;51.376;6.126;2023-03-19T15:44:08;5.43;;;3.83;;
15624;SDS011;7912;51.376;6.126;2023-03-19T15:46:55;7.43;;;3.70;;
15624;SDS011;7912;51.376;6.126;2023-03-19T15:49:37;5.07;;;4.03;;
15624;SDS011;7912;51.376;6.126;2023-03-19T15:52:14;5.47;;;4.20;;
15624;SDS011;7912;51.376;6.126;2023-03-19T15:54:45;4.50;;;3.70;;
15624;SDS011;7912;51.376;6.126;2023-03-19T15:57:13;6.13;;;4.50;;
15624;SDS011;7912;51.376;6.126;2023-03-19T15:59:43;7.10;;;5.57;;
15624;SDS011;7912;51.376;6.126;2023-03-19T16:02:14;6.37;;;5.50;;
15624;SDS011;7912;51.376;6.126;2023-03-19T16:04:53;6.13;;;5.20;;
15624;SDS011;7912;51.376;6.126;2023-03-19T16:07:42;5.57;;;4.80;;
15624;SDS011;7912;51.376;6.126;2023-03-19T16:19:59;7.27;;;6.33;;
15624;SDS011;7912;51.376;6.126;2023-03-19T16:22:31;8.50;;;6.53;;
15624;SDS011;7912;51.376;6.126;2023-03-19T16:25:02;8.37;;;7.47;;
15624;SDS011;7912;51.376;6.126;2023-03-19T16:27:38;8.40;;;6.80;;
15624;SDS011;7912;51.376;6.126;2023-03-19T16:30:13;9.53;;;8.63;;
15624;SDS011;7912;51.376;6.126;2023-03-19T16:33:00;9.77;;;8.70;;
15624;SDS011;7912;51.376;6.126;2023-03-19T16:35:35;10.13;;;8.43;;
15624;SDS011;7912;51.376;6.126;2023-03-19T16:38:16;11.33;;;8.43;;
15624;SDS011;7912;51.376;6.126;2023-03-19T16:41:34;9.10;;;8.20;;
15624;SDS011;7912;51.376;6.126;2023-03-19T16:43:52;9.63;;;8.23;;
15624;SDS011;7912;51.376;6.126;2023-03-19T16:46:21;9.53;;;8.07;;
15624;SDS011;7912;51.376;6.126;2023-03-19T16:48:52;10.03;;;8.67;;
15624;SDS011;7912;51.376;6.126;2023-03-19T16:51:19;10.97;;;8.10;;
15624;SDS011;7912;51.376;6.126;2023-03-19T16:53:47;11.20;;;8.77;;
15624;SDS011;7912;51.376;6.126;2023-03-19T16:56:16;11.40;;;9.17;;
15624;SDS011;7912;51.376;6.126;2023-03-19T16:58:44;9.80;;;8.40;;
15624;SDS011;7912;51.376;6.126;2023-03-19T17:01:21;12.03;;;9.07;;
15624;SDS011;7912;51.376;6.126;2023-03-19T17:03:51;9.67;;;8.60;;
15624;SDS011;7912;51.376;6.126;2023-03-19T17:06:22;10.60;;;9.60;;
15624;SDS011;7912;51.376;6.126;2023-03-19T17:08:50;15.07;;;10.93;;
15624;SDS011;7912;51.376;6.126;2023-03-19T17:11:30;10.80;;;9.70;;
15624;SDS011;7912;51.376;6.126;2023-03-19T17:18:18;11.20;;;9.93;;
15624;SDS011;7912;51.376;6.126;2023-03-19T17:23:31;11.80;;;9.77;;
15624;SDS011;7912;51.376;6.126;2023-03-19T17:26:15;9.87;;;8.87;;
15624;SDS011;7912;51.376;6.126;2023-03-19T17:28:52;9.97;;;8.93;;
15624;SDS011;7912;51.376;6.126;2023-03-19T17:31:30;10.00;;;8.90;;
15624;SDS011;7912;51.376;6.126;2023-03-19T17:34:03;11.83;;;9.77;;
15624;SDS011;7912;51.376;6.126;2023-03-19T17:36:54;9.60;;;8.60;;
15624;SDS011;7912;51.376;6.126;2023-03-19T17:39:26;10.53;;;9.53;;
15624;SDS011;7912;51.376;6.126;2023-03-19T17:41:58;13.23;;;10.93;;
15624;SDS011;7912;51.376;6.126;2023-03-19T17:44:29;13.90;;;12.30;;
15624;SDS011;7912;51.376;6.126;2023-03-19T17:47:31;17.70;;;13.63;;
15624;SDS011;7912;51.376;6.126;2023-03-19T17:50:00;15.30;;;13.03;;
15624;SDS011;7912;51.376;6.126;2023-03-19T17:52:28;16.60;;;14.23;;
15624;SDS011;7912;51.376;6.126;2023-03-19T17:55:01;15.47;;;13.23;;
15624;SDS011;7912;51.376;6.126;2023-03-19T17:58:07;16.20;;;12.67;;
15624;SDS011;7912;51.376;6.126;2023-03-19T18:00:49;15.63;;;13.30;;
15624;SDS011;7912;51.376;6.126;2023-03-19T18:03:23;17.80;;;14.27;;
15624;SDS011;7912;51.376;6.126;2023-03-19T18:05:58;14.53;;;12.70;;
15624;SDS011;7912;51.376;6.126;2023-03-19T18:08:51;17.77;;;13.13;;
15624;SDS011;7912;51.376;6.126;2023-03-19T18:11:27;16.50;;;14.47;;
15624;SDS011;7912;51.376;6.126;2023-03-19T18:16:57;16.73;;;13.80;;
15624;SDS011;7912;51.376;6.126;2023-03-19T18:19:31;17.93;;;15.23;;
15624;SDS011;7912;51.376;6.126;2023-03-19T18:22:17;17.03;;;14.83;;
15624;SDS011;7912;51.376;6.126;2023-03-19T18:24:59;19.23;;;16.43;;
15624;SDS011;7912;51.376;6.126;2023-03-19T18:27:31;18.53;;;14.93;;
15624;SDS011;7912;51.376;6.126;2023-03-19T18:30:04;17.77;;;15.47;;
15624;SDS011;7912;51.376;6.126;2023-03-19T18:32:37;16.43;;;13.43;;
15624;SDS011;7912;51.376;6.126;2023-03-19T18:35:15;16.20;;;12.37;;
15624;SDS011;7912;51.376;6.126;2023-03-19T18:40:58;16.00;;;12.23;;
15624;SDS011;7912;51.376;6.126;2023-03-19T18:43:30;14.33;;;12.43;;